sensor_id;sensor_type;location;lat;lon;timestamp;P1;durP1;ratioP1;P2;durP2;ratioP2
15679;SDS011;15488;48.114;11.532;2023-02-01T00:00:01;1.70;;;1.20;;
15679;SDS011;15488;48.114;11.532;2023-02-01T00:02:29;1.80;;;1.10;;
15679;SDS011;15488;48.114;11.532;2023-02-01T00:04:57;2.10;;;1.30;;
15679;SDS011;15488;48.114;11.532;2023-02-01T00:07:24;3.10;;;1.47;;
15679;SDS011;15488;48.114;11.532;2023-02-01T00:09:52;3.17;;;1.50;;
15679;SDS011;15488;48.114;11.532;2023-02-01T00:12:19;2.30;;;1.40;;
15679;SDS011;15488;48.114;11.532;2023-02-01T00:14:46;2.80;;;1.40;;
15679;SDS011;15488;48.114;11.532;2023-02-01T00:17:15;1.87;;;0.97;;
15679;SDS011;15488;48.114;11.532;2023-02-01T00:19:43;2.03;;;1.13;;
15679;SDS011;15488;48.114;11.532;2023-02-01T00:22:10;1.83;;;1.37;;
15679;SDS011;15488;48.114;11.532;2023-02-01T00:24:37;2.17;;;1.07;;
15679;SDS011;15488;48.114;11.532;2023-02-01T00:27:05;2.40;;;1.13;;
15679;SDS011;15488;48.114;11.532;2023-02-01T00:29:32;1.43;;;1.20;;
15679;SDS011;15488;48.114;11.532;2023-02-01T00:32:00;2.20;;;1.40;;
15679;SDS011;15488;48.114;11.532;2023-02-01T00:34:28;1.33;;;0.90;;
15679;SDS011;15488;48.114;11.532;2023-02-01T00:36:56;2.73;;;1.20;;
15679;SDS011;15488;48.114;11.532;2023-02-01T00:39:25;2.00;;;1.10;;
15679;SDS011;15488;48.114;11.532;2023-02-01T00:41:52;2.50;;;1.13;;
15679;SDS011;15488;48.114;11.532;2023-02-01T00:44:20;1.60;;;1.17;;
15679;SDS011;15488;48.114;11.532;2023-02-01T00:46:47;2.40;;;1.53;;
15679;SDS011;15488;48.114;11.532;2023-02-01T00:49:15;1.57;;;1.13;;
15679;SDS011;15488;48.114;11.532;2023-02-01T00:51:43;1.83;;;1.37;;
15679;SDS011;15488;48.114;11.532;2023-02-01T00:54:11;1.97;;;1.40;;
15679;SDS011;15488;48.114;11.532;2023-02-01T00:56:38;2.20;;;1.27;;
15679;SDS011;15488;48.114;11.532;2023-02-01T00:59:06;3.13;;;1.33;;
15679;SDS011;15488;48.114;11.532;2023-02-01T01:01:34;3.27;;;1.40;;
15679;SDS011;15488;48.114;11.532;2023-02-01T01:04:01;2.33;;;1.50;;
15679;SDS011;15488;48.114;11.532;2023-02-01T01:06:30;2.93;;;1.60;;
15679;SDS011;15488;48.114;11.532;2023-02-01T01:09:00;2.30;;;1.70;;
15679;SDS011;15488;48.114;11.532;2023-02-01T01:11:31;3.73;;;1.60;;
15679;SDS011;15488;48.114;11.532;2023-02-01T01:14:01;3.00;;;1.97;;
15679;SDS011;15488;48.114;11.532;2023-02-01T01:16:30;2.53;;;1.50;;
15679;SDS011;15488;48.114;11.532;2023-02-01T01:18:58;2.17;;;1.63;;
15679;SDS011;15488;48.114;11.532;2023-02-01T01:21:27;3.23;;;1.50;;
15679;SDS011;15488;48.114;11.532;2023-02-01T01:23:54;2.97;;;1.87;;
15679;SDS011;15488;48.114;11.532;2023-02-01T01:26:24;2.67;;;1.60;;
15679;SDS011;15488;48.114;11.532;2023-02-01T01:28:54;3.53;;;2.07;;
15679;SDS011;15488;48.114;11.532;2023-02-01T01:31:22;2.80;;;1.67;;
15679;SDS011;15488;48.114;11.532;2023-02-01T01:33:50;2.93;;;1.60;;
15679;SDS011;15488;48.114;11.532;2023-02-01T01:36:18;2.50;;;1.70;;
15679;SDS011;15488;48.114;11.532;2023-02-01T01:38:46;3.20;;;2.17;;
15679;SDS011;15488;48.114;11.532;2023-02-01T01:41:15;3.40;;;2.20;;
15679;SDS011;15488;48.114;11.532;2023-02-01T01:43:50;2.83;;;1.97;;
15679;SDS011;15488;48.114;11.532;2023-02-01T01:46:20;2.63;;;1.73;;
15679;SDS011;15488;48.114;11.532;2023-02-01T01:48:50;3.97;;;2.20;;
15679;SDS011;15488;48.114;11.532;2023-02-01T01:51:23;4.80;;;2.00;;
15679;SDS011;15488;48.114;11.532;2023-02-01T01:53:55;2.43;;;1.73;;
15679;SDS011;15488;48.114;11.532;2023-02-01T01:56:26;2.90;;;1.87;;
15679;SDS011;15488;48.114;11.532;2023-02-01T01:58:57;2.87;;;1.90;;
15679;SDS011;15488;48.114;11.532;2023-02-01T02:01:25;2.97;;;1.93;;
15679;SDS011;15488;48.114;11.532;2023-02-01T02:03:53;5.43;;;2.20;;
15679;SDS011;15488;48.114;11.532;2023-02-01T02:06:26;3.30;;;1.87;;
15679;SDS011;15488;48.114;11.532;2023-02-01T02:08:59;4.63;;;2.47;;
15679;SDS011;15488;48.114;11.532;2023-02-01T02:11:27;3.43;;;2.20;;
15679;SDS011;15488;48.114;11.532;2023-02-01T02:13:55;3.80;;;2.30;;
15679;SDS011;15488;48.114;11.532;2023-02-01T02:16:28;4.13;;;2.43;;
15679;SDS011;15488;48.114;11.532;2023-02-01T02:19:19;3.23;;;1.90;;
15679;SDS011;15488;48.114;11.532;2023-02-01T02:22:14;3.20;;;2.00;;
15679;SDS011;15488;48.114;11.532;2023-02-01T02:25:20;2.90;;;2.30;;
15679;SDS011;15488;48.114;11.532;2023-02-01T02:28:12;3.63;;;2.40;;
15679;SDS011;15488;48.114;11.532;2023-02-01T02:31:12;3.63;;;2.47;;
15679;SDS011;15488;48.114;11.532;2023-02-01T02:34:04;3.27;;;2.40;;
15679;SDS011;15488;48.114;11.532;2023-02-01T02:36:42;3.20;;;2.40;;
15679;SDS011;15488;48.114;11.532;2023-02-01T02:39:18;3.47;;;2.20;;
15679;SDS011;15488;48.114;11.532;2023-02-01T02:41:54;2.07;;;1.87;;
15679;SDS011;15488;48.114;11.532;2023-02-01T02:44:45;4.70;;;2.47;;
15679;SDS011;15488;48.114;11.532;2023-02-01T02:47:33;4.20;;;2.70;;
15679;SDS011;15488;48.114;11.532;2023-02-01T02:50:15;3.93;;;2.30;;
15679;SDS011;15488;48.114;11.532;2023-02-01T02:53:09;3.43;;;2.30;;
15679;SDS011;15488;48.114;11.532;2023-02-01T02:55:57;3.13;;;2.10;;
15679;SDS011;15488;48.114;11.532;2023-02-01T02:58:44;4.07;;;2.20;;
15679;SDS011;15488;48.114;11.532;2023-02-01T03:01:31;3.20;;;2.20;;
15679;SDS011;15488;48.114;11.532;2023-02-01T03:04:17;4.20;;;2.03;;
15679;SDS011;15488;48.114;11.532;2023-02-01T03:06:47;2.97;;;2.00;;
15679;SDS011;15488;48.114;11.532;2023-02-01T03:09:16;3.70;;;2.10;;
15679;SDS011;15488;48.114;11.532;2023-02-01T03:11:49;3.40;;;2.20;;
15679;SDS011;15488;48.114;11.532;2023-02-01T03:14:36;2.47;;;1.93;;
15679;SDS011;15488;48.114;11.532;2023-02-01T03:17:08;2.60;;;2.10;;
15679;SDS011;15488;48.114;11.532;2023-02-01T03:19:39;2.83;;;1.87;;
15679;SDS011;15488;48.114;11.532;2023-02-01T03:22:15;3.07;;;1.97;;
15679;SDS011;15488;48.114;11.532;2023-02-01T03:24:46;2.90;;;2.03;;
15679;SDS011;15488;48.114;11.532;2023-02-01T03:27:17;3.30;;;2.27;;
15679;SDS011;15488;48.114;11.532;2023-02-01T03:29:48;3.23;;;1.80;;
15679;SDS011;15488;48.114;11.532;2023-02-01T03:32:18;2.90;;;2.00;;
15679;SDS011;15488;48.114;11.532;2023-02-01T03:34:46;2.87;;;1.90;;
15679;SDS011;15488;48.114;11.532;2023-02-01T03:37:17;2.80;;;1.70;;
15679;SDS011;15488;48.114;11.532;2023-02-01T03:39:52;4.27;;;1.80;;
15679;SDS011;15488;48.114;11.532;2023-02-01T03:42:27;3.53;;;2.10;;
15679;SDS011;15488;48.114;11.532;2023-02-01T03:45:01;3.03;;;2.03;;
15679;SDS011;15488;48.114;11.532;2023-02-01T03:47:34;2.47;;;1.90;;
15679;SDS011;15488;48.114;11.532;2023-02-01T03:50:04;3.00;;;1.67;;
15679;SDS011;15488;48.114;11.532;2023-02-01T03:52:38;2.33;;;1.77;;
15679;SDS011;15488;48.114;11.532;2023-02-01T03:55:08;2.30;;;1.73;;
15679;SDS011;15488;48.114;11.532;2023-02-01T03:57:38;2.40;;;1.80;;
15679;SDS011;15488;48.114;11.532;2023-02-01T04:00:19;2.57;;;1.70;;
15679;SDS011;15488;48.114;11.532;2023-02-01T04:02:48;2.07;;;1.53;;
15679;SDS011;15488;48.114;11.532;2023-02-01T04:05:15;1.97;;;1.50;;
15679;SDS011;15488;48.114;11.532;2023-02-01T04:07:44;3.77;;;1.87;;
15679;SDS011;15488;48.114;11.532;2023-02-01T04:10:12;2.10;;;1.50;;
15679;SDS011;15488;48.114;11.532;2023-02-01T04:12:40;2.53;;;1.73;;
15679;SDS011;15488;48.114;11.532;2023-02-01T04:15:08;2.60;;;2.03;;
15679;SDS011;15488;48.114;11.532;2023-02-01T04:17:36;2.70;;;2.03;;
15679;SDS011;15488;48.114;11.532;2023-02-01T04:20:03;2.93;;;1.80;;
15679;SDS011;15488;48.114;11.532;2023-02-01T04:22:31;3.33;;;2.00;;
15679;SDS011;15488;48.114;11.532;2023-02-01T04:25:00;3.40;;;1.70;;
15679;SDS011;15488;48.114;11.532;2023-02-01T04:27:28;3.03;;;1.93;;
15679;SDS011;15488;48.114;11.532;2023-02-01T04:29:55;2.20;;;1.50;;
15679;SDS011;15488;48.114;11.532;2023-02-01T04:32:22;2.40;;;1.70;;
15679;SDS011;15488;48.114;11.532;2023-02-01T04:34:50;3.60;;;1.80;;
15679;SDS011;15488;48.114;11.532;2023-02-01T04:37:17;3.93;;;1.77;;
15679;SDS011;15488;48.114;11.532;2023-02-01T04:39:45;3.03;;;2.10;;
15679;SDS011;15488;48.114;11.532;2023-02-01T04:42:13;2.93;;;2.00;;
15679;SDS011;15488;48.114;11.532;2023-02-01T04:44:41;2.47;;;1.80;;
15679;SDS011;15488;48.114;11.532;2023-02-01T04:47:08;3.37;;;1.90;;
15679;SDS011;15488;48.114;11.532;2023-02-01T04:49:36;2.77;;;1.63;;
15679;SDS011;15488;48.114;11.532;2023-02-01T04:52:03;3.43;;;2.10;;
15679;SDS011;15488;48.114;11.532;2023-02-01T04:54:31;3.53;;;1.87;;
15679;SDS011;15488;48.114;11.532;2023-02-01T04:56:58;2.97;;;1.83;;
15679;SDS011;15488;48.114;11.532;2023-02-01T04:59:27;3.83;;;1.90;;
15679;SDS011;15488;48.114;11.532;2023-02-01T05:01:55;3.80;;;1.97;;
15679;SDS011;15488;48.114;11.532;2023-02-01T05:04:22;2.97;;;2.10;;
15679;SDS011;15488;48.114;11.532;2023-02-01T05:06:50;3.53;;;1.90;;
15679;SDS011;15488;48.114;11.532;2023-02-01T05:09:17;3.43;;;2.00;;
15679;SDS011;15488;48.114;11.532;2023-02-01T05:11:46;3.03;;;2.10;;
15679;SDS011;15488;48.114;11.532;2023-02-01T05:14:32;2.73;;;2.10;;
15679;SDS011;15488;48.114;11.532;2023-02-01T05:17:00;3.37;;;2.03;;
15679;SDS011;15488;48.114;11.532;2023-02-01T05:19:27;4.13;;;2.10;;
15679;SDS011;15488;48.114;11.532;2023-02-01T05:21:55;2.63;;;1.80;;
15679;SDS011;15488;48.114;11.532;2023-02-01T05:24:22;2.70;;;2.23;;
15679;SDS011;15488;48.114;11.532;2023-02-01T05:26:50;4.60;;;2.20;;
15679;SDS011;15488;48.114;11.532;2023-02-01T05:29:17;2.50;;;1.77;;
15679;SDS011;15488;48.114;11.532;2023-02-01T05:31:46;2.77;;;1.90;;
15679;SDS011;15488;48.114;11.532;2023-02-01T05:34:14;3.60;;;2.20;;
15679;SDS011;15488;48.114;11.532;2023-02-01T05:36:41;3.77;;;2.30;;
15679;SDS011;15488;48.114;11.532;2023-02-01T05:39:09;2.93;;;2.07;;
15679;SDS011;15488;48.114;11.532;2023-02-01T05:41:37;3.93;;;2.20;;
15679;SDS011;15488;48.114;11.532;2023-02-01T05:44:04;4.10;;;2.30;;
15679;SDS011;15488;48.114;11.532;2023-02-01T05:46:33;3.07;;;2.40;;
15679;SDS011;15488;48.114;11.532;2023-02-01T05:49:02;3.47;;;2.20;;
15679;SDS011;15488;48.114;11.532;2023-02-01T05:51:29;3.17;;;2.10;;
15679;SDS011;15488;48.114;11.532;2023-02-01T05:53:57;3.60;;;2.43;;
15679;SDS011;15488;48.114;11.532;2023-02-01T05:56:24;4.33;;;2.20;;
15679;SDS011;15488;48.114;11.532;2023-02-01T05:58:52;3.27;;;2.00;;
15679;SDS011;15488;48.114;11.532;2023-02-01T06:01:19;2.67;;;2.00;;
15679;SDS011;15488;48.114;11.532;2023-02-01T06:03:46;4.60;;;2.20;;
15679;SDS011;15488;48.114;11.532;2023-02-01T06:06:15;3.03;;;2.10;;
15679;SDS011;15488;48.114;11.532;2023-02-01T06:08:43;3.30;;;2.30;;
15679;SDS011;15488;48.114;11.532;2023-02-01T06:11:11;2.90;;;1.97;;
15679;SDS011;15488;48.114;11.532;2023-02-01T06:13:39;3.23;;;2.00;;
15679;SDS011;15488;48.114;11.532;2023-02-01T06:16:06;2.80;;;2.10;;
15679;SDS011;15488;48.114;11.532;2023-02-01T06:18:34;3.47;;;2.30;;
15679;SDS011;15488;48.114;11.532;2023-02-01T06:21:02;2.97;;;2.17;;
15679;SDS011;15488;48.114;11.532;2023-02-01T06:23:31;3.63;;;2.20;;
15679;SDS011;15488;48.114;11.532;2023-02-01T06:26:00;2.97;;;2.00;;
15679;SDS011;15488;48.114;11.532;2023-02-01T06:28:29;2.90;;;1.83;;
15679;SDS011;15488;48.114;11.532;2023-02-01T06:30:57;3.77;;;2.40;;
15679;SDS011;15488;48.114;11.532;2023-02-01T06:33:28;3.20;;;2.23;;
15679;SDS011;15488;48.114;11.532;2023-02-01T06:35:56;4.50;;;2.73;;
15679;SDS011;15488;48.114;11.532;2023-02-01T06:38:24;3.37;;;1.80;;
15679;SDS011;15488;48.114;11.532;2023-02-01T06:40:53;3.40;;;2.03;;
15679;SDS011;15488;48.114;11.532;2023-02-01T06:43:22;3.23;;;2.40;;
15679;SDS011;15488;48.114;11.532;2023-02-01T06:45:51;4.70;;;2.17;;
15679;SDS011;15488;48.114;11.532;2023-02-01T06:48:19;2.80;;;1.77;;
15679;SDS011;15488;48.114;11.532;2023-02-01T06:50:46;3.10;;;2.17;;
15679;SDS011;15488;48.114;11.532;2023-02-01T06:53:14;3.20;;;2.07;;
15679;SDS011;15488;48.114;11.532;2023-02-01T06:55:41;2.60;;;2.07;;
15679;SDS011;15488;48.114;11.532;2023-02-01T06:58:20;3.27;;;1.67;;
15679;SDS011;15488;48.114;11.532;2023-02-01T07:00:47;2.20;;;1.87;;
15679;SDS011;15488;48.114;11.532;2023-02-01T07:03:15;3.10;;;1.90;;
15679;SDS011;15488;48.114;11.532;2023-02-01T07:05:43;3.07;;;1.80;;
15679;SDS011;15488;48.114;11.532;2023-02-01T07:08:10;3.17;;;1.93;;
15679;SDS011;15488;48.114;11.532;2023-02-01T07:10:38;2.80;;;2.00;;
15679;SDS011;15488;48.114;11.532;2023-02-01T07:13:05;2.47;;;1.53;;
15679;SDS011;15488;48.114;11.532;2023-02-01T07:15:34;2.70;;;1.70;;
15679;SDS011;15488;48.114;11.532;2023-02-01T07:18:01;2.67;;;1.70;;
15679;SDS011;15488;48.114;11.532;2023-02-01T07:20:29;2.43;;;1.70;;
15679;SDS011;15488;48.114;11.532;2023-02-01T07:22:57;2.80;;;1.63;;
15679;SDS011;15488;48.114;11.532;2023-02-01T07:25:24;2.70;;;1.80;;
15679;SDS011;15488;48.114;11.532;2023-02-01T07:27:51;3.07;;;2.00;;
15679;SDS011;15488;48.114;11.532;2023-02-01T07:30:19;2.03;;;1.23;;
15679;SDS011;15488;48.114;11.532;2023-02-01T07:32:48;1.73;;;1.33;;
15679;SDS011;15488;48.114;11.532;2023-02-01T07:35:15;1.97;;;1.60;;
15679;SDS011;15488;48.114;11.532;2023-02-01T07:37:43;1.63;;;1.40;;
15679;SDS011;15488;48.114;11.532;2023-02-01T07:40:11;2.30;;;1.57;;
15679;SDS011;15488;48.114;11.532;2023-02-01T07:42:39;1.83;;;1.20;;
15679;SDS011;15488;48.114;11.532;2023-02-01T07:45:06;2.00;;;1.37;;
15679;SDS011;15488;48.114;11.532;2023-02-01T07:47:34;1.97;;;1.30;;
15679;SDS011;15488;48.114;11.532;2023-02-01T07:50:08;2.53;;;1.60;;
15679;SDS011;15488;48.114;11.532;2023-02-01T07:52:41;2.47;;;1.40;;
15679;SDS011;15488;48.114;11.532;2023-02-01T07:55:14;1.47;;;1.20;;
15679;SDS011;15488;48.114;11.532;2023-02-01T07:57:42;1.77;;;1.10;;
15679;SDS011;15488;48.114;11.532;2023-02-01T08:00:10;2.07;;;1.13;;
15679;SDS011;15488;48.114;11.532;2023-02-01T08:02:57;3.53;;;1.37;;
15679;SDS011;15488;48.114;11.532;2023-02-01T08:05:26;1.67;;;1.30;;
15679;SDS011;15488;48.114;11.532;2023-02-01T08:07:53;2.87;;;1.23;;
15679;SDS011;15488;48.114;11.532;2023-02-01T08:10:21;2.20;;;1.07;;
15679;SDS011;15488;48.114;11.532;2023-02-01T08:12:48;2.63;;;1.40;;
15679;SDS011;15488;48.114;11.532;2023-02-01T08:15:17;1.60;;;1.10;;
15679;SDS011;15488;48.114;11.532;2023-02-01T08:17:47;1.80;;;1.33;;
15679;SDS011;15488;48.114;11.532;2023-02-01T08:20:15;1.33;;;1.10;;
15679;SDS011;15488;48.114;11.532;2023-02-01T08:22:44;2.10;;;1.20;;
15679;SDS011;15488;48.114;11.532;2023-02-01T08:25:11;1.63;;;1.10;;
15679;SDS011;15488;48.114;11.532;2023-02-01T08:27:42;2.47;;;1.03;;
15679;SDS011;15488;48.114;11.532;2023-02-01T08:30:10;2.70;;;1.10;;
15679;SDS011;15488;48.114;11.532;2023-02-01T08:32:38;1.87;;;1.47;;
15679;SDS011;15488;48.114;11.532;2023-02-01T08:35:06;2.23;;;1.20;;
15679;SDS011;15488;48.114;11.532;2023-02-01T08:37:34;1.93;;;1.30;;
15679;SDS011;15488;48.114;11.532;2023-02-01T08:40:03;1.97;;;1.30;;
15679;SDS011;15488;48.114;11.532;2023-02-01T08:42:31;2.47;;;1.20;;
15679;SDS011;15488;48.114;11.532;2023-02-01T08:45:17;1.80;;;1.20;;
15679;SDS011;15488;48.114;11.532;2023-02-01T08:47:46;1.43;;;1.00;;
15679;SDS011;15488;48.114;11.532;2023-02-01T08:50:14;1.67;;;1.20;;
15679;SDS011;15488;48.114;11.532;2023-02-01T08:52:42;1.70;;;1.20;;
15679;SDS011;15488;48.114;11.532;2023-02-01T08:55:11;2.30;;;1.20;;
15679;SDS011;15488;48.114;11.532;2023-02-01T08:57:38;1.77;;;1.10;;
15679;SDS011;15488;48.114;11.532;2023-02-01T09:00:07;2.50;;;1.17;;
15679;SDS011;15488;48.114;11.532;2023-02-01T09:02:37;1.97;;;1.10;;
15679;SDS011;15488;48.114;11.532;2023-02-01T09:05:05;2.30;;;1.40;;
15679;SDS011;15488;48.114;11.532;2023-02-01T09:07:33;1.80;;;1.40;;
15679;SDS011;15488;48.114;11.532;2023-02-01T09:10:00;1.73;;;1.40;;
15679;SDS011;15488;48.114;11.532;2023-02-01T09:12:30;1.77;;;1.20;;
15679;SDS011;15488;48.114;11.532;2023-02-01T09:14:59;1.87;;;1.30;;
15679;SDS011;15488;48.114;11.532;2023-02-01T09:17:26;2.20;;;1.37;;
15679;SDS011;15488;48.114;11.532;2023-02-01T09:19:54;1.47;;;1.30;;
15679;SDS011;15488;48.114;11.532;2023-02-01T09:22:22;1.77;;;1.50;;
15679;SDS011;15488;48.114;11.532;2023-02-01T09:24:49;1.90;;;1.30;;
15679;SDS011;15488;48.114;11.532;2023-02-01T09:27:17;1.67;;;1.20;;
15679;SDS011;15488;48.114;11.532;2023-02-01T09:29:46;1.60;;;1.10;;
15679;SDS011;15488;48.114;11.532;2023-02-01T09:32:18;2.50;;;1.37;;
15679;SDS011;15488;48.114;11.532;2023-02-01T09:34:46;2.03;;;1.23;;
15679;SDS011;15488;48.114;11.532;2023-02-01T09:37:14;1.73;;;1.27;;
15679;SDS011;15488;48.114;11.532;2023-02-01T09:39:42;2.77;;;1.40;;
15679;SDS011;15488;48.114;11.532;2023-02-01T09:42:16;2.20;;;1.33;;
15679;SDS011;15488;48.114;11.532;2023-02-01T09:44:57;1.23;;;0.90;;
15679;SDS011;15488;48.114;11.532;2023-02-01T09:47:36;2.00;;;1.20;;
15679;SDS011;15488;48.114;11.532;2023-02-01T09:50:20;3.40;;;1.70;;
15679;SDS011;15488;48.114;11.532;2023-02-01T09:52:54;2.50;;;1.50;;
15679;SDS011;15488;48.114;11.532;2023-02-01T09:55:27;2.27;;;1.20;;
15679;SDS011;15488;48.114;11.532;2023-02-01T09:58:02;2.03;;;1.30;;
15679;SDS011;15488;48.114;11.532;2023-02-01T10:00:37;2.07;;;1.10;;
15679;SDS011;15488;48.114;11.532;2023-02-01T10:03:07;1.50;;;1.30;;
15679;SDS011;15488;48.114;11.532;2023-02-01T10:05:43;1.30;;;1.03;;
15679;SDS011;15488;48.114;11.532;2023-02-01T10:08:25;2.47;;;1.60;;
15679;SDS011;15488;48.114;11.532;2023-02-01T10:11:02;3.87;;;2.07;;
15679;SDS011;15488;48.114;11.532;2023-02-01T10:13:43;1.80;;;1.43;;
15679;SDS011;15488;48.114;11.532;2023-02-01T10:16:20;2.57;;;1.67;;
15679;SDS011;15488;48.114;11.532;2023-02-01T10:21:54;2.10;;;1.40;;
15679;SDS011;15488;48.114;11.532;2023-02-01T10:24:28;3.33;;;1.30;;
15679;SDS011;15488;48.114;11.532;2023-02-01T10:27:11;1.70;;;1.20;;
15679;SDS011;15488;48.114;11.532;2023-02-01T10:29:41;3.97;;;1.87;;
15679;SDS011;15488;48.114;11.532;2023-02-01T10:32:15;2.90;;;1.60;;
15679;SDS011;15488;48.114;11.532;2023-02-01T10:34:46;2.13;;;1.43;;
15679;SDS011;15488;48.114;11.532;2023-02-01T10:37:22;2.07;;;1.50;;
15679;SDS011;15488;48.114;11.532;2023-02-01T10:39:53;1.60;;;1.20;;
15679;SDS011;15488;48.114;11.532;2023-02-01T10:42:24;2.30;;;1.40;;
15679;SDS011;15488;48.114;11.532;2023-02-01T10:44:53;2.43;;;1.50;;
15679;SDS011;15488;48.114;11.532;2023-02-01T10:47:24;1.70;;;1.30;;
15679;SDS011;15488;48.114;11.532;2023-02-01T10:49:54;1.60;;;1.33;;
15679;SDS011;15488;48.114;11.532;2023-02-01T10:52:31;1.83;;;1.10;;
15679;SDS011;15488;48.114;11.532;2023-02-01T10:58:03;2.00;;;1.50;;
15679;SDS011;15488;48.114;11.532;2023-02-01T11:00:34;2.07;;;1.27;;
15679;SDS011;15488;48.114;11.532;2023-02-01T11:06:11;3.80;;;1.80;;
15679;SDS011;15488;48.114;11.532;2023-02-01T11:08:49;2.47;;;1.50;;
15679;SDS011;15488;48.114;11.532;2023-02-01T11:11:19;3.17;;;1.47;;
15679;SDS011;15488;48.114;11.532;2023-02-01T11:13:51;2.60;;;1.70;;
15679;SDS011;15488;48.114;11.532;2023-02-01T11:16:28;2.67;;;1.87;;
15679;SDS011;15488;48.114;11.532;2023-02-01T11:19:00;2.70;;;1.80;;
15679;SDS011;15488;48.114;11.532;2023-02-01T11:21:28;3.50;;;1.83;;
15679;SDS011;15488;48.114;11.532;2023-02-01T11:23:56;2.33;;;1.47;;
15679;SDS011;15488;48.114;11.532;2023-02-01T11:26:28;1.80;;;1.40;;
15679;SDS011;15488;48.114;11.532;2023-02-01T11:28:59;2.63;;;1.70;;
15679;SDS011;15488;48.114;11.532;2023-02-01T11:31:29;3.30;;;1.60;;
15679;SDS011;15488;48.114;11.532;2023-02-01T11:33:59;2.70;;;1.73;;
15679;SDS011;15488;48.114;11.532;2023-02-01T11:36:33;1.83;;;1.37;;
15679;SDS011;15488;48.114;11.532;2023-02-01T11:39:07;3.60;;;1.80;;
15679;SDS011;15488;48.114;11.532;2023-02-01T11:41:55;2.67;;;1.57;;
15679;SDS011;15488;48.114;11.532;2023-02-01T11:44:28;2.70;;;1.50;;
15679;SDS011;15488;48.114;11.532;2023-02-01T11:49:49;2.63;;;1.67;;
15679;SDS011;15488;48.114;11.532;2023-02-01T11:52:23;2.00;;;1.40;;
15679;SDS011;15488;48.114;11.532;2023-02-01T11:55:07;2.80;;;1.60;;
15679;SDS011;15488;48.114;11.532;2023-02-01T11:57:58;1.90;;;1.60;;
15679;SDS011;15488;48.114;11.532;2023-02-01T12:00:46;2.90;;;1.93;;
15679;SDS011;15488;48.114;11.532;2023-02-01T12:03:31;2.50;;;1.80;;
15679;SDS011;15488;48.114;11.532;2023-02-01T12:06:17;2.90;;;1.77;;
15679;SDS011;15488;48.114;11.532;2023-02-01T12:09:02;3.27;;;1.80;;
15679;SDS011;15488;48.114;11.532;2023-02-01T12:11:43;2.60;;;1.63;;
15679;SDS011;15488;48.114;11.532;2023-02-01T12:14:31;2.40;;;1.80;;
15679;SDS011;15488;48.114;11.532;2023-02-01T12:17:24;3.53;;;1.70;;
15679;SDS011;15488;48.114;11.532;2023-02-01T12:20:26;2.83;;;1.63;;
15679;SDS011;15488;48.114;11.532;2023-02-01T12:23:10;2.87;;;1.43;;
15679;SDS011;15488;48.114;11.532;2023-02-01T12:25:57;2.40;;;1.67;;
15679;SDS011;15488;48.114;11.532;2023-02-01T12:28:37;3.00;;;1.53;;
15679;SDS011;15488;48.114;11.532;2023-02-01T12:31:38;3.53;;;1.70;;
15679;SDS011;15488;48.114;11.532;2023-02-01T12:34:22;3.27;;;1.70;;
15679;SDS011;15488;48.114;11.532;2023-02-01T12:37:03;2.67;;;1.40;;
15679;SDS011;15488;48.114;11.532;2023-02-01T12:39:39;4.17;;;1.60;;
15679;SDS011;15488;48.114;11.532;2023-02-01T12:42:12;3.30;;;1.50;;
15679;SDS011;15488;48.114;11.532;2023-02-01T12:44:43;4.27;;;1.63;;
15679;SDS011;15488;48.114;11.532;2023-02-01T12:47:16;2.23;;;1.30;;
15679;SDS011;15488;48.114;11.532;2023-02-01T12:49:49;4.07;;;1.43;;
15679;SDS011;15488;48.114;11.532;2023-02-01T12:52:23;3.27;;;1.60;;
15679;SDS011;15488;48.114;11.532;2023-02-01T12:55:03;4.00;;;1.20;;
15679;SDS011;15488;48.114;11.532;2023-02-01T12:57:36;2.10;;;1.33;;
15679;SDS011;15488;48.114;11.532;2023-02-01T13:00:09;2.97;;;1.30;;
15679;SDS011;15488;48.114;11.532;2023-02-01T13:02:51;2.73;;;1.43;;
15679;SDS011;15488;48.114;11.532;2023-02-01T13:05:23;3.40;;;1.40;;
15679;SDS011;15488;48.114;11.532;2023-02-01T13:07:56;2.80;;;1.40;;
15679;SDS011;15488;48.114;11.532;2023-02-01T13:10:32;2.90;;;1.53;;
15679;SDS011;15488;48.114;11.532;2023-02-01T13:13:04;2.20;;;1.10;;
15679;SDS011;15488;48.114;11.532;2023-02-01T13:15:39;2.87;;;1.40;;
15679;SDS011;15488;48.114;11.532;2023-02-01T13:18:11;2.73;;;1.13;;
15679;SDS011;15488;48.114;11.532;2023-02-01T13:20:45;2.53;;;1.43;;
15679;SDS011;15488;48.114;11.532;2023-02-01T13:23:21;2.23;;;1.40;;
15679;SDS011;15488;48.114;11.532;2023-02-01T13:25:54;2.40;;;1.47;;
15679;SDS011;15488;48.114;11.532;2023-02-01T13:28:24;2.83;;;1.57;;
15679;SDS011;15488;48.114;11.532;2023-02-01T13:30:58;1.70;;;1.37;;
15679;SDS011;15488;48.114;11.532;2023-02-01T13:33:44;2.33;;;1.37;;
15679;SDS011;15488;48.114;11.532;2023-02-01T13:36:37;1.80;;;1.33;;
15679;SDS011;15488;48.114;11.532;2023-02-01T13:42:20;2.53;;;1.43;;
15679;SDS011;15488;48.114;11.532;2023-02-01T13:44:50;2.73;;;1.43;;
15679;SDS011;15488;48.114;11.532;2023-02-01T13:47:26;2.50;;;1.70;;
15679;SDS011;15488;48.114;11.532;2023-02-01T13:49:58;1.90;;;1.40;;
15679;SDS011;15488;48.114;11.532;2023-02-01T13:52:29;2.10;;;1.40;;
15679;SDS011;15488;48.114;11.532;2023-02-01T13:58:15;3.63;;;2.00;;
15679;SDS011;15488;48.114;11.532;2023-02-01T14:00:45;2.27;;;1.50;;
15679;SDS011;15488;48.114;11.532;2023-02-01T14:03:15;3.90;;;1.50;;
15679;SDS011;15488;48.114;11.532;2023-02-01T14:06:00;1.67;;;1.10;;
15679;SDS011;15488;48.114;11.532;2023-02-01T14:08:37;1.87;;;1.53;;
15679;SDS011;15488;48.114;11.532;2023-02-01T14:14:13;2.40;;;1.70;;
15679;SDS011;15488;48.114;11.532;2023-02-01T14:23:16;1.53;;;1.23;;
15679;SDS011;15488;48.114;11.532;2023-02-01T14:26:06;3.10;;;1.30;;
15679;SDS011;15488;48.114;11.532;2023-02-01T14:28:41;2.27;;;1.20;;
15679;SDS011;15488;48.114;11.532;2023-02-01T14:31:23;2.27;;;1.50;;
15679;SDS011;15488;48.114;11.532;2023-02-01T14:34:00;2.27;;;1.20;;
15679;SDS011;15488;48.114;11.532;2023-02-01T14:36:42;1.63;;;1.10;;
15679;SDS011;15488;48.114;11.532;2023-02-01T14:39:20;2.87;;;1.43;;
15679;SDS011;15488;48.114;11.532;2023-02-01T14:42:02;3.37;;;1.40;;
15679;SDS011;15488;48.114;11.532;2023-02-01T14:44:33;2.30;;;1.23;;
15679;SDS011;15488;48.114;11.532;2023-02-01T14:47:07;2.57;;;1.27;;
15679;SDS011;15488;48.114;11.532;2023-02-01T14:49:52;3.47;;;1.23;;
15679;SDS011;15488;48.114;11.532;2023-02-01T14:52:23;2.63;;;1.33;;
15679;SDS011;15488;48.114;11.532;2023-02-01T14:55:00;1.87;;;1.07;;
15679;SDS011;15488;48.114;11.532;2023-02-01T14:57:32;2.50;;;1.13;;
15679;SDS011;15488;48.114;11.532;2023-02-01T15:00:08;2.37;;;1.00;;
15679;SDS011;15488;48.114;11.532;2023-02-01T15:02:46;1.77;;;1.10;;
15679;SDS011;15488;48.114;11.532;2023-02-01T15:05:29;3.10;;;1.37;;
15679;SDS011;15488;48.114;11.532;2023-02-01T15:08:00;1.73;;;1.30;;
15679;SDS011;15488;48.114;11.532;2023-02-01T15:10:32;2.60;;;1.20;;
15679;SDS011;15488;48.114;11.532;2023-02-01T15:13:12;1.93;;;1.13;;
15679;SDS011;15488;48.114;11.532;2023-02-01T15:18:36;3.50;;;1.30;;
15679;SDS011;15488;48.114;11.532;2023-02-01T15:21:04;2.23;;;1.30;;
15679;SDS011;15488;48.114;11.532;2023-02-01T15:23:40;3.20;;;1.33;;
15679;SDS011;15488;48.114;11.532;2023-02-01T15:28:50;2.00;;;0.90;;
15679;SDS011;15488;48.114;11.532;2023-02-01T15:31:30;1.47;;;0.93;;
15679;SDS011;15488;48.114;11.532;2023-02-01T15:34:02;3.20;;;1.20;;
15679;SDS011;15488;48.114;11.532;2023-02-01T15:36:30;2.00;;;0.97;;